Time;durP1;ratioP1;P1;durP2;ratioP2;P2;SDS_P1;SDS_P2;PMS_P1;PMS_P2;Temp;Humidity;BMP_temperature;BMP_pressure;BME280_temperature;BME280_humidity;BME280_pressure;Samples;Min_cycle;Max_cycle;Signal;HPM_P1;HPM_P2
2022/07/04 00:01:35;;;;;;;6.38;2.72;;;28.90;99.90;;;;;;4167355;28;20072;-65
2022/07/04 00:03:40;;;;;;;8.48;3.28;;;28.90;99.90;;;;;;4169546;28;20075;-65
2022/07/04 00:05:44;;;;;;;6.22;3.30;;;28.90;99.90;;;;;;4168316;28;20479;-64
2022/07/04 00:07:49;;;;;;;8.73;3.00;;;29.00;99.90;;;;;;4168833;28;20041;-63
2022/07/04 00:09:58;;;;;;;6.00;3.00;;;29.00;99.90;;;;;;4169863;28;20041;-63
2022/07/04 00:12:04;;;;;;;6.55;2.80;;;29.00;99.90;;;;;;4171276;28;20048;-62
2022/07/04 00:14:08;;;;;;;6.78;3.40;;;29.00;99.90;;;;;;4166522;28;20063;-63
2022/07/04 00:16:15;;;;;;;7.68;3.20;;;29.10;99.90;;;;;;4163339;28;20047;-64
2022/07/04 00:18:21;;;;;;;5.55;2.85;;;29.10;99.90;;;;;;4162226;28;20060;-64
2022/07/04 00:20:26;;;;;;;6.70;3.28;;;29.10;99.90;;;;;;4165865;28;20124;-64
2022/07/04 00:22:31;;;;;;;7.63;3.33;;;29.10;99.90;;;;;;4166844;28;20099;-63
2022/07/04 00:24:38;;;;;;;10.27;4.07;;;29.10;99.90;;;;;;4168912;28;20036;-63
2022/07/04 00:26:43;;;;;;;7.32;3.25;;;29.10;99.90;;;;;;4168666;28;20041;-63
2022/07/04 00:28:49;;;;;;;8.73;3.30;;;29.20;99.90;;;;;;4167472;28;20136;-64
2022/07/04 00:30:55;;;;;;;7.28;3.28;;;29.20;99.90;;;;;;4166565;28;20088;-64
2022/07/04 00:33:00;;;;;;;5.85;3.00;;;29.30;99.90;;;;;;4167377;28;20045;-63
2022/07/04 00:35:06;;;;;;;6.75;2.70;;;29.40;99.90;;;;;;4172738;28;20056;-64
2022/07/04 00:37:12;;;;;;;5.70;3.15;;;29.40;99.90;;;;;;4169636;28;20557;-63
2022/07/04 00:39:29;;;;;;;5.65;2.65;;;29.40;99.90;;;;;;4169435;28;20531;-63
2022/07/04 00:41:42;;;;;;;7.78;3.13;;;29.40;99.90;;;;;;4154841;28;20041;-64
2022/07/04 00:44:02;;;;;;;10.07;3.20;;;29.50;99.90;;;;;;4165032;28;20045;-64
2022/07/04 00:46:16;;;;;;;5.60;2.83;;;29.50;99.90;;;;;;4168857;28;20138;-64
2022/07/04 00:48:23;;;;;;;5.75;2.50;;;29.60;99.90;;;;;;4167656;28;20168;-64
2022/07/04 00:50:50;;;;;;;8.32;3.00;;;29.70;99.90;;;;;;4168410;28;20334;-63
2022/07/04 00:52:55;;;;;;;6.05;2.70;;;29.70;99.90;;;;;;4167805;28;20049;-63
2022/07/04 00:55:00;;;;;;;4.60;2.33;;;29.80;99.90;;;;;;4166498;28;20265;-64
2022/07/04 00:57:07;;;;;;;3.63;2.10;;;29.80;99.90;;;;;;4165044;28;20041;-63
2022/07/04 00:59:12;;;;;;;6.60;2.65;;;29.90;99.90;;;;;;4166044;28;20546;-65
2022/07/04 01:01:19;;;;;;;6.57;3.05;;;30.00;99.90;;;;;;4164063;28;20045;-64
2022/07/04 01:03:25;;;;;;;6.03;2.55;;;30.10;99.90;;;;;;4174273;28;20110;-64
2022/07/04 01:05:32;;;;;;;5.15;2.40;;;30.10;99.90;;;;;;4176536;28;20109;-64
2022/07/04 01:07:37;;;;;;;4.63;2.60;;;30.10;99.80;;;;;;4141230;28;20089;-64
2022/07/04 01:09:45;;;;;;;5.45;2.40;;;30.10;99.70;;;;;;4176003;28;20167;-64
2022/07/04 01:11:50;;;;;;;6.72;2.38;;;30.20;99.70;;;;;;4158579;28;20045;-64
2022/07/04 01:13:57;;;;;;;5.20;2.15;;;30.30;99.60;;;;;;4159887;28;20057;-64
2022/07/04 01:16:03;;;;;;;5.28;2.42;;;30.40;99.30;;;;;;4159619;28;20052;-63
2022/07/04 01:18:08;;;;;;;5.78;2.30;;;30.40;99.00;;;;;;4166227;28;20128;-64
2022/07/04 01:20:14;;;;;;;5.45;2.10;;;30.50;99.00;;;;;;4176977;28;20042;-64
2022/07/04 01:22:21;;;;;;;4.72;1.92;;;30.50;98.90;;;;;;4176058;28;20306;-64
2022/07/04 01:24:26;;;;;;;4.90;2.03;;;30.60;98.50;;;;;;4175920;28;20127;-64
2022/07/04 01:26:34;;;;;;;5.25;1.95;;;30.60;98.60;;;;;;4169610;28;20385;-64
2022/07/04 01:28:43;;;;;;;6.05;2.42;;;30.70;98.30;;;;;;4160470;28;20395;-64
2022/07/04 01:30:57;;;;;;;5.15;2.47;;;30.70;98.40;;;;;;4160482;28;20068;-64
2022/07/04 01:33:10;;;;;;;4.80;2.55;;;30.80;98.50;;;;;;4174299;28;20079;-64
2022/07/04 01:35:16;;;;;;;3.55;2.17;;;30.80;98.30;;;;;;4159176;28;20053;-64
2022/07/04 01:37:21;;;;;;;3.45;1.88;;;30.90;98.40;;;;;;4160485;28;20041;-64
2022/07/04 01:39:28;;;;;;;5.85;2.55;;;30.90;98.30;;;;;;4175474;28;20164;-64
2022/07/04 01:41:36;;;;;;;5.75;2.45;;;31.00;98.20;;;;;;4180402;28;20045;-64
2022/07/04 01:43:40;;;;;;;9.07;2.15;;;31.00;98.10;;;;;;4160500;28;20080;-63
2022/07/04 01:45:48;;;;;;;4.55;2.20;;;31.00;97.90;;;;;;4160483;28;20045;-64
2022/07/04 01:47:56;;;;;;;4.15;2.08;;;31.00;98.10;;;;;;4176974;28;20480;-64
2022/07/04 01:50:01;;;;;;;4.82;2.42;;;31.10;98.10;;;;;;4176651;28;20076;-64
2022/07/04 01:52:08;;;;;;;4.82;2.20;;;31.10;97.80;;;;;;4126052;28;20053;-64
2022/07/04 01:54:16;;;;;;;3.63;2.42;;;31.10;97.90;;;;;;4176057;28;20052;-64
2022/07/04 01:56:24;;;;;;;2.92;1.80;;;31.10;97.50;;;;;;4176569;28;20048;-65
2022/07/04 01:58:34;;;;;;;5.25;1.90;;;31.10;97.60;;;;;;4142173;28;20603;-65
2022/07/04 02:03:05;;;;;;;4.78;1.92;;;31.30;97.50;;;;;;4159647;28;20585;-64
2022/07/04 02:05:10;;;;;;;3.85;1.60;;;31.30;97.30;;;;;;4159985;28;20052;-65
2022/07/04 02:07:17;;;;;;;4.40;2.00;;;31.40;97.20;;;;;;4158632;28;20472;-64
2022/07/04 02:09:22;;;;;;;11.73;2.13;;;31.40;97.20;;;;;;4158812;28;20067;-64
2022/07/04 02:13:00;;;;;;;4.47;1.90;;;31.50;96.80;;;;;;4130622;28;20042;-64
2022/07/04 02:13:53;;;;;;;5.43;2.08;;;31.50;96.70;;;;;;4176042;28;20541;-64
2022/07/04 02:15:58;;;;;;;6.63;2.00;;;31.60;96.90;;;;;;4174864;28;20049;-64
2022/07/04 02:18:06;;;;;;;4.30;1.77;;;31.70;96.80;;;;;;4124889;28;20595;-65
2022/07/04 02:20:12;;;;;;;4.05;1.55;;;31.70;96.50;;;;;;4175090;28;20041;-64
2022/07/04 02:22:18;;;;;;;3.53;1.70;;;31.80;96.20;;;;;;4176394;28;20095;-64
2022/07/04 02:24:24;;;;;;;2.97;1.75;;;31.80;96.30;;;;;;4157315;28;20576;-64
2022/07/04 02:26:30;;;;;;;2.80;1.58;;;31.80;96.30;;;;;;4175420;28;20084;-64
2022/07/04 02:28:35;;;;;;;5.57;2.00;;;31.90;96.50;;;;;;4176140;28;20048;-64
2022/07/04 02:30:42;;;;;;;4.65;2.00;;;31.90;96.40;;;;;;4176120;28;20084;-65
2022/07/04 02:32:49;;;;;;;5.53;1.75;;;32.00;96.30;;;;;;4176200;28;20147;-65
2022/07/04 02:34:54;;;;;;;6.53;1.90;;;32.10;96.10;;;;;;4174801;28;20055;-65
2022/07/04 02:37:01;;;;;;;4.13;1.98;;;32.10;95.50;;;;;;4176092;28;20284;-64
2022/07/04 02:39:08;;;;;;;2.65;1.80;;;32.00;95.00;;;;;;4176033;28;20048;-64
2022/07/04 02:41:12;;;;;;;4.20;1.67;;;32.10;95.10;;;;;;4174847;28;20036;-64
2022/07/04 02:43:17;;;;;;;3.72;1.60;;;32.10;95.40;;;;;;4175974;28;20041;-65
2022/07/04 02:45:24;;;;;;;3.95;1.85;;;32.20;95.20;;;;;;4175848;28;20494;-64
2022/07/04 02:47:28;;;;;;;3.70;1.70;;;32.20;94.90;;;;;;4176046;28;20060;-65
2022/07/04 02:49:35;;;;;;;4.65;1.77;;;32.20;95.00;;;;;;4175967;28;20132;-65
2022/07/04 02:51:41;;;;;;;3.17;1.75;;;32.20;95.10;;;;;;4175049;28;20080;-64
2022/07/04 02:53:46;;;;;;;6.80;2.38;;;32.30;95.00;;;;;;4176052;28;20118;-64
2022/07/04 02:55:53;;;;;;;4.25;2.08;;;32.30;94.70;;;;;;4175832;28;20566;-65
2022/07/04 02:57:59;;;;;;;3.85;1.88;;;32.40;95.00;;;;;;4174733;28;20055;-65
2022/07/04 03:00:04;;;;;;;4.43;1.83;;;32.50;95.40;;;;;;4175900;28;20048;-65
2022/07/04 03:02:11;;;;;;;5.65;2.10;;;32.60;95.30;;;;;;4174783;28;20068;-65
2022/07/04 03:04:18;;;;;;;4.97;2.10;;;32.70;95.30;;;;;;4175388;28;20056;-65
2022/07/04 03:06:22;;;;;;;6.63;2.22;;;32.70;95.40;;;;;;4178172;28;20094;-65
2022/07/04 03:08:29;;;;;;;4.32;2.00;;;32.80;95.70;;;;;;4179193;28;20060;-65
2022/07/04 03:10:35;;;;;;;4.90;2.10;;;32.80;95.30;;;;;;4177866;28;20044;-65
2022/07/04 03:12:40;;;;;;;3.55;2.10;;;32.80;95.60;;;;;;4178022;28;20076;-65
2022/07/04 03:14:44;;;;;;;4.97;2.22;;;32.80;95.60;;;;;;4179039;28;20063;-65
2022/07/04 03:16:51;;;;;;;5.47;2.00;;;32.90;95.60;;;;;;4179049;28;20087;-64
2022/07/04 03:18:56;;;;;;;5.70;2.20;;;32.80;95.70;;;;;;4171802;28;20480;-64
2022/07/04 03:21:04;;;;;;;4.05;2.05;;;32.70;95.50;;;;;;4169891;28;20464;-64
2022/07/04 03:23:16;;;;;;;6.53;2.27;;;32.80;95.50;;;;;;4172933;28;20037;-65
2022/07/04 03:25:21;;;;;;;8.48;2.75;;;32.90;95.30;;;;;;4177825;28;20053;-64
2022/07/04 03:27:28;;;;;;;6.43;1.92;;;33.00;94.80;;;;;;4169079;28;20069;-65
2022/07/04 03:29:35;;;;;;;6.82;2.08;;;33.20;94.80;;;;;;4162125;28;20438;-64
2022/07/04 03:31:39;;;;;;;4.72;2.15;;;33.20;95.20;;;;;;4162257;28;20053;-64
2022/07/04 03:33:45;;;;;;;7.43;2.45;;;33.30;95.10;;;;;;4177817;28;20059;-64
2022/07/04 03:35:51;;;;;;;4.88;1.90;;;33.40;94.70;;;;;;4177426;28;20251;-65
2022/07/04 03:37:56;;;;;;;6.13;2.10;;;33.50;94.90;;;;;;4161345;28;20555;-65
2022/07/04 03:40:02;;;;;;;5.82;1.90;;;33.60;94.60;;;;;;4143420;28;20467;-65
2022/07/04 03:42:09;;;;;;;5.55;1.50;;;33.60;94.30;;;;;;4172509;28;20049;-65
2022/07/04 03:44:14;;;;;;;9.55;2.22;;;33.70;94.10;;;;;;4178735;28;20067;-65
2022/07/04 03:46:21;;;;;;;4.07;1.90;;;33.70;94.00;;;;;;4178149;28;20076;-64
2022/07/04 03:48:29;;;;;;;4.43;2.20;;;33.70;93.50;;;;;;4178515;28;20063;-64
2022/07/04 03:50:38;;;;;;;4.90;1.83;;;33.80;93.50;;;;;;4178501;28;20139;-64
2022/07/04 03:52:45;;;;;;;4.60;1.83;;;33.70;93.00;;;;;;4177685;28;20404;-64
2022/07/04 03:54:51;;;;;;;6.50;1.88;;;33.60;92.90;;;;;;4178422;28;20458;-64
2022/07/04 03:56:56;;;;;;;5.38;1.98;;;33.70;93.40;;;;;;4177360;28;20672;-65
2022/07/04 03:59:03;;;;;;;5.13;2.00;;;33.70;93.30;;;;;;4193559;28;20140;-64
2022/07/04 04:01:09;;;;;;;5.68;2.13;;;33.80;93.30;;;;;;4178231;28;20567;-64
2022/07/04 04:05:32;;;;;;;3.65;1.60;;;33.60;93.00;;;;;;4177297;28;20076;-64
2022/07/04 04:07:36;;;;;;;8.05;2.70;;;33.70;93.40;;;;;;4178632;28;20047;-64
2022/07/04 04:09:42;;;;;;;3.65;1.70;;;33.80;93.50;;;;;;4178266;28;20057;-64
2022/07/04 04:11:48;;;;;;;5.13;1.73;;;33.90;93.20;;;;;;4178275;28;20053;-65
2022/07/04 04:13:53;;;;;;;4.30;1.80;;;33.90;92.70;;;;;;4178461;28;20057;-64
2022/07/04 04:15:58;;;;;;;6.68;2.47;;;33.70;93.40;;;;;;4159820;28;20107;-65
2022/07/04 04:18:03;;;;;;;6.40;2.05;;;33.70;93.30;;;;;;4178216;28;20045;-64
2022/07/04 04:20:11;;;;;;;3.95;2.03;;;33.60;93.50;;;;;;4177996;28;20297;-64
2022/07/04 04:22:16;;;;;;;4.47;1.85;;;33.70;92.90;;;;;;4178412;28;20120;-67
2022/07/04 04:24:20;;;;;;;3.92;1.80;;;33.70;92.50;;;;;;4178290;28;20065;-65
2022/07/04 04:26:28;;;;;;;5.47;1.95;;;33.80;92.90;;;;;;4178252;28;20124;-64
2022/07/04 04:28:32;;;;;;;5.30;2.00;;;33.90;93.10;;;;;;4177930;28;20507;-64
2022/07/04 04:30:37;;;;;;;7.57;2.13;;;33.90;92.80;;;;;;4177953;28;20063;-64
2022/07/04 04:32:46;;;;;;;5.22;2.05;;;34.00;92.70;;;;;;4176455;28;20114;-63
2022/07/04 04:34:51;;;;;;;4.50;1.63;;;34.10;92.80;;;;;;4160316;28;20144;-63
2022/07/04 04:36:55;;;;;;;4.63;1.60;;;34.00;91.80;;;;;;4176482;28;20099;-63
2022/07/04 04:39:04;;;;;;;3.97;1.90;;;34.10;92.20;;;;;;4158991;28;20059;-63
2022/07/04 04:41:08;;;;;;;5.05;1.67;;;34.20;93.00;;;;;;4177613;28;20507;-64
2022/07/04 04:43:13;;;;;;;3.35;1.58;;;34.40;92.40;;;;;;4177701;28;20053;-63
2022/07/04 04:45:18;;;;;;;3.25;1.42;;;34.40;91.60;;;;;;4176361;28;20067;-64
2022/07/04 04:47:22;;;;;;;3.90;1.67;;;34.40;91.50;;;;;;4160503;28;20483;-63
2022/07/04 04:49:29;;;;;;;5.32;2.40;;;34.50;91.90;;;;;;4178067;28;20075;-63
2022/07/04 04:51:36;;;;;;;4.63;2.53;;;34.60;91.10;;;;;;4177344;28;20078;-63
2022/07/04 04:53:41;;;;;;;3.83;1.75;;;34.70;91.40;;;;;;4177670;28;20503;-63
2022/07/04 04:55:46;;;;;;;4.57;1.60;;;34.80;91.40;;;;;;4176364;28;20566;-63
2022/07/04 04:57:50;;;;;;;2.80;1.33;;;34.90;90.90;;;;;;4177314;28;20060;-63
2022/07/04 04:59:55;;;;;;;5.32;1.90;;;35.00;91.30;;;;;;4171397;28;20076;-63
2022/07/04 05:01:59;;;;;;;5.05;1.30;;;35.00;91.00;;;;;;4169439;28;20403;-63
2022/07/04 05:04:08;;;;;;;4.38;1.70;;;35.20;90.10;;;;;;4192849;28;20174;-63
2022/07/04 05:06:13;;;;;;;3.50;1.30;;;35.20;91.20;;;;;;4177649;28;20332;-62
2022/07/04 05:08:18;;;;;;;3.65;1.60;;;35.20;91.40;;;;;;4177325;28;20048;-62
2022/07/04 05:10:28;;;;;;;3.42;1.50;;;35.00;91.40;;;;;;4177108;28;20116;-63
2022/07/04 05:12:33;;;;;;;4.97;1.60;;;35.10;91.10;;;;;;4177803;28;20449;-62
2022/07/04 05:14:42;;;;;;;4.70;1.45;;;35.20;91.10;;;;;;4176057;28;20106;-63
2022/07/04 05:16:50;;;;;;;2.22;1.05;;;35.30;90.40;;;;;;4177305;28;20107;-63
2022/07/04 05:18:56;;;;;;;2.58;1.40;;;35.30;90.60;;;;;;4177290;28;20084;-63
2022/07/04 05:21:02;;;;;;;3.25;1.20;;;35.20;90.60;;;;;;4175753;28;20091;-62
2022/07/04 05:23:11;;;;;;;4.47;1.60;;;35.00;91.10;;;;;;4177207;28;20051;-63
2022/07/04 05:25:16;;;;;;;3.42;1.42;;;35.10;91.20;;;;;;4176899;28;20048;-62
2022/07/04 05:27:21;;;;;;;5.30;1.60;;;35.20;91.30;;;;;;4176983;28;20044;-63
2022/07/04 05:29:28;;;;;;;2.90;1.30;;;35.20;91.20;;;;;;4176494;28;20049;-62
2022/07/04 05:31:32;;;;;;;3.25;1.48;;;35.30;90.60;;;;;;4176938;28;20144;-63
2022/07/04 05:33:37;;;;;;;3.15;1.50;;;35.00;90.10;;;;;;4175679;28;20045;-62
2022/07/04 05:35:46;;;;;;;5.18;2.25;;;34.80;90.80;;;;;;4176869;28;20124;-63
2022/07/04 05:37:50;;;;;;;3.67;1.45;;;34.80;91.00;;;;;;4177060;28;20102;-62
2022/07/04 05:39:55;;;;;;;6.50;1.80;;;34.80;91.30;;;;;;4176704;28;20388;-62
2022/07/04 05:42:03;;;;;;;4.28;1.85;;;34.70;91.60;;;;;;4177122;28;20079;-62
2022/07/04 05:44:08;;;;;;;4.00;1.75;;;34.70;91.80;;;;;;4176933;28;20076;-62
2022/07/04 05:46:13;;;;;;;3.08;1.85;;;34.60;92.20;;;;;;4175360;28;20140;-62
2022/07/04 05:48:21;;;;;;;6.88;1.95;;;34.60;92.20;;;;;;4176789;28;20114;-63
2022/07/04 05:50:26;;;;;;;5.70;2.00;;;34.50;92.10;;;;;;4176021;28;20059;-63
2022/07/04 05:52:35;;;;;;;4.43;1.67;;;34.70;91.80;;;;;;4175713;28;20531;-62
2022/07/04 05:54:41;;;;;;;4.50;1.67;;;34.80;91.70;;;;;;4176554;28;20068;-63
2022/07/04 05:56:48;;;;;;;5.30;1.95;;;35.00;91.70;;;;;;4176856;28;20037;-63
2022/07/04 05:58:53;;;;;;;3.22;1.60;;;35.00;91.60;;;;;;4176754;28;20047;-63
2022/07/04 06:01:02;;;;;;;6.70;1.88;;;35.00;91.70;;;;;;4176444;28;20078;-63
2022/07/04 06:03:07;;;;;;;4.15;1.88;;;35.00;91.50;;;;;;4176596;28;20052;-63
2022/07/04 06:05:12;;;;;;;5.97;2.42;;;35.00;91.60;;;;;;4176477;28;20088;-63
2022/07/04 06:07:21;;;;;;;5.25;1.90;;;34.90;91.40;;;;;;4175360;28;20053;-63
2022/07/04 06:09:25;;;;;;;4.50;1.75;;;34.90;91.30;;;;;;4176505;28;20136;-63
2022/07/04 06:11:30;;;;;;;4.03;1.88;;;34.80;91.10;;;;;;4174941;28;20256;-64
2022/07/04 06:13:37;;;;;;;3.22;1.77;;;35.20;91.40;;;;;;4175405;28;20045;-64
2022/07/04 06:15:42;;;;;;;2.10;1.38;;;35.20;91.20;;;;;;4174854;28;20049;-64
2022/07/04 06:17:46;;;;;;;2.80;1.60;;;35.10;91.50;;;;;;4176450;28;20037;-65
2022/07/04 06:19:55;;;;;;;3.55;1.92;;;35.10;91.20;;;;;;4175361;28;20478;-64
2022/07/04 06:21:59;;;;;;;4.80;2.03;;;35.00;91.10;;;;;;4176144;28;20087;-64
2022/07/04 06:24:04;;;;;;;3.63;1.77;;;35.00;91.10;;;;;;4176259;28;20059;-64
2022/07/04 06:26:12;;;;;;;4.10;1.90;;;34.90;91.20;;;;;;4174852;28;20045;-64
2022/07/04 06:28:17;;;;;;;3.88;1.90;;;35.00;91.10;;;;;;4176169;28;20052;-64
2022/07/04 06:30:41;;;;;;;4.35;2.05;;;35.10;91.10;;;;;;4174346;28;20486;-64
2022/07/04 06:32:49;;;;;;;3.03;1.50;;;35.10;91.10;;;;;;4176174;28;20059;-64
2022/07/04 06:37:11;;;;;;;3.03;1.75;;;35.20;91.40;;;;;;4176329;28;20727;-63
2022/07/04 06:39:19;;;;;;;2.28;1.55;;;35.00;91.10;;;;;;4175842;28;20049;-63
2022/07/04 06:41:24;;;;;;;5.22;1.95;;;34.80;91.20;;;;;;4174177;28;20357;-63
2022/07/04 06:43:29;;;;;;;3.45;1.90;;;34.80;91.00;;;;;;4176215;28;20043;-63
2022/07/04 06:45:37;;;;;;;4.45;1.92;;;35.00;90.90;;;;;;4175812;28;20053;-61
2022/07/04 06:47:43;;;;;;;3.40;1.70;;;35.20;90.90;;;;;;4175784;28;20045;-62
2022/07/04 06:49:47;;;;;;;4.85;1.80;;;35.30;90.90;;;;;;4175989;28;20110;-63
2022/07/04 06:51:58;;;;;;;4.53;1.70;;;35.20;91.20;;;;;;4141208;28;20050;-63
2022/07/04 06:54:03;;;;;;;4.63;1.60;;;35.00;90.80;;;;;;4175420;28;20045;-62
2022/07/04 06:56:07;;;;;;;4.93;1.90;;;35.00;91.00;;;;;;4174996;28;20077;-62
2022/07/04 06:58:15;;;;;;;2.95;1.30;;;35.00;90.90;;;;;;4175624;28;20090;-62
2022/07/04 07:00:20;;;;;;;3.55;1.45;;;35.20;90.30;;;;;;4175680;28;20057;-62
2022/07/04 07:02:24;;;;;;;3.72;1.40;;;35.40;90.10;;;;;;4174552;28;20064;-62
2022/07/04 07:04:33;;;;;;;2.80;1.65;;;35.60;90.00;;;;;;4174760;28;20495;-62
2022/07/04 07:06:37;;;;;;;3.60;1.38;;;35.50;90.20;;;;;;4175951;28;20447;-62
2022/07/04 07:08:42;;;;;;;3.45;1.75;;;35.60;90.00;;;;;;4176175;28;20068;-62
2022/07/04 07:10:50;;;;;;;6.03;1.55;;;35.50;89.60;;;;;;4123970;28;20467;-62
2022/07/04 07:12:55;;;;;;;3.60;1.45;;;35.50;89.80;;;;;;4159978;28;20103;-63
2022/07/04 07:14:59;;;;;;;3.90;1.23;;;35.40;89.40;;;;;;4159339;28;20045;-62
2022/07/04 07:17:04;;;;;;;5.07;1.60;;;35.20;89.50;;;;;;4159105;28;20060;-62
2022/07/04 07:19:08;;;;;;;2.85;1.50;;;35.10;89.70;;;;;;4159309;28;20136;-62
2022/07/04 07:21:13;;;;;;;4.72;1.48;;;35.00;90.00;;;;;;4157835;28;20063;-62
2022/07/04 07:23:21;;;;;;;2.78;1.60;;;35.00;90.00;;;;;;4159403;28;20060;-63
2022/07/04 07:25:26;;;;;;;3.25;1.70;;;34.90;90.20;;;;;;4159515;28;20048;-62
2022/07/04 07:27:31;;;;;;;3.42;1.25;;;34.70;90.70;;;;;;4142156;28;20068;-62
2022/07/04 07:29:39;;;;;;;2.92;1.45;;;34.60;90.50;;;;;;4159027;28;20053;-62
2022/07/04 07:31:44;;;;;;;4.55;1.52;;;34.50;90.70;;;;;;4157628;28;20444;-63
2022/07/04 07:33:49;;;;;;;3.55;1.40;;;34.50;90.60;;;;;;4159545;28;20045;-62
2022/07/04 07:35:55;;;;;;;3.30;1.40;;;34.50;91.00;;;;;;4159253;28;20091;-62
2022/07/04 07:38:07;;;;;;;4.85;1.48;;;34.30;91.20;;;;;;4157953;28;20147;-62
2022/07/04 07:40:12;;;;;;;2.75;1.55;;;34.30;90.80;;;;;;4158909;28;20523;-62
2022/07/04 07:42:19;;;;;;;2.88;1.45;;;34.30;90.70;;;;;;4169296;28;20088;-62
2022/07/04 07:44:23;;;;;;;3.78;1.40;;;34.30;90.80;;;;;;4174517;28;20048;-62
2022/07/04 07:46:28;;;;;;;6.25;1.77;;;34.30;90.80;;;;;;4157509;28;20623;-62
2022/07/04 07:48:35;;;;;;;3.00;1.48;;;34.30;90.90;;;;;;4175728;28;20072;-62
2022/07/04 07:50:40;;;;;;;3.55;1.33;;;34.40;90.90;;;;;;4175910;28;20136;-61
2022/07/04 07:52:46;;;;;;;2.42;1.30;;;34.30;90.50;;;;;;4178563;28;20509;-61
2022/07/04 07:54:54;;;;;;;4.95;1.38;;;34.20;90.70;;;;;;4178737;28;20036;-61
2022/07/04 07:57:03;;;;;;;4.18;1.75;;;34.20;91.00;;;;;;4178513;28;20052;-61
2022/07/04 07:59:08;;;;;;;2.97;1.27;;;34.20;91.20;;;;;;4178708;28;20587;-61
2022/07/04 08:01:17;;;;;;;3.47;1.42;;;34.20;91.30;;;;;;4178091;28;20111;-61
2022/07/04 08:05:40;;;;;;;5.32;1.77;;;34.30;91.00;;;;;;4177954;28;20123;-61
2022/07/04 08:07:48;;;;;;;11.35;1.85;;;34.50;90.70;;;;;;4178752;28;20037;-61
2022/07/04 08:09:53;;;;;;;3.03;1.20;;;34.50;90.80;;;;;;4178624;28;20045;-60
2022/07/04 08:11:59;;;;;;;4.85;1.35;;;34.60;90.80;;;;;;4178230;28;20045;-63
2022/07/04 08:14:07;;;;;;;4.25;1.73;;;34.80;90.70;;;;;;4176823;28;20550;-62
2022/07/04 08:16:12;;;;;;;3.65;1.30;;;34.80;90.50;;;;;;4178384;28;20240;-62
2022/07/04 08:18:17;;;;;;;3.78;1.33;;;34.80;90.40;;;;;;4177198;28;20040;-61
2022/07/04 08:20:26;;;;;;;3.25;1.15;;;34.70;90.20;;;;;;4177977;28;20686;-62
2022/07/04 08:22:31;;;;;;;2.20;1.10;;;34.60;90.00;;;;;;4177103;28;20045;-62
2022/07/04 08:24:37;;;;;;;2.17;1.05;;;34.50;90.30;;;;;;4178215;28;20468;-62
2022/07/04 08:26:47;;;;;;;5.22;1.25;;;34.50;90.40;;;;;;4178043;28;20132;-61
2022/07/04 08:28:55;;;;;;;4.22;1.30;;;34.50;90.40;;;;;;4178220;28;20053;-62
2022/07/04 08:31:00;;;;;;;2.53;1.20;;;34.40;90.60;;;;;;4177646;28;20150;-61
2022/07/04 08:33:07;;;;;;;4.80;1.48;;;34.40;90.60;;;;;;4176681;28;20045;-62
2022/07/04 08:35:12;;;;;;;2.38;1.20;;;34.20;90.50;;;;;;4178204;28;20098;-64
2022/07/04 08:37:16;;;;;;;3.92;1.15;;;34.20;90.40;;;;;;4177806;28;20462;-62
2022/07/04 08:39:23;;;;;;;3.08;1.08;;;34.20;90.40;;;;;;4159044;28;20377;-62
2022/07/04 08:41:28;;;;;;;2.97;1.40;;;34.20;90.60;;;;;;4177298;28;20051;-62
2022/07/04 08:43:33;;;;;;;3.72;1.40;;;34.10;90.50;;;;;;4176623;28;20551;-62
2022/07/04 08:45:40;;;;;;;4.38;1.40;;;34.20;90.50;;;;;;4177411;28;20081;-63
2022/07/04 08:48:06;;;;;;;3.20;1.15;;;34.20;91.00;;;;;;4161376;28;20674;-62
2022/07/04 08:50:16;;;;;;;5.90;1.50;;;34.30;91.10;;;;;;4159949;28;20061;-62
2022/07/04 08:52:42;;;;;;;4.30;1.27;;;34.30;90.80;;;;;;4160000;28;20046;-62
2022/07/04 08:59:27;;;;;;;2.92;1.38;;;34.30;90.70;;;;;;4142242;28;20097;-63
2022/07/04 09:01:32;;;;;;;5.68;1.30;;;34.40;90.60;;;;;;4130783;28;20052;-63
2022/07/04 09:03:36;;;;;;;3.45;1.10;;;34.50;90.30;;;;;;4126339;28;20066;-62
2022/07/04 09:05:43;;;;;;;4.07;1.10;;;34.60;90.40;;;;;;4158699;28;20464;-63
2022/07/04 09:07:48;;;;;;;2.92;1.30;;;34.60;90.00;;;;;;4151961;28;20387;-63
2022/07/04 09:09:56;;;;;;;2.90;0.80;;;34.70;90.30;;;;;;4133895;28;20042;-63
2022/07/04 09:12:04;;;;;;;2.60;1.10;;;34.60;90.00;;;;;;4124727;28;20050;-63
2022/07/04 09:14:08;;;;;;;2.22;1.00;;;34.70;89.60;;;;;;4123376;28;20145;-63
2022/07/04 09:16:12;;;;;;;3.20;1.15;;;34.70;89.30;;;;;;4124787;28;20042;-63
2022/07/04 09:18:22;;;;;;;3.35;1.80;;;34.70;89.20;;;;;;4125065;28;20081;-62
2022/07/04 09:20:27;;;;;;;5.22;1.42;;;34.70;89.50;;;;;;4125287;28;20103;-63
2022/07/04 09:22:31;;;;;;;3.20;1.40;;;34.80;89.60;;;;;;4125472;28;20241;-63
2022/07/04 09:24:45;;;;;;;4.68;1.13;;;34.80;90.00;;;;;;4125352;28;20580;-63
2022/07/04 09:27:03;;;;;;;3.15;1.10;;;34.70;90.00;;;;;;4125004;28;20035;-62
2022/07/04 09:29:08;;;;;;;2.83;1.15;;;34.60;90.20;;;;;;4138405;28;20046;-62
2022/07/04 09:31:19;;;;;;;2.55;1.23;;;34.60;90.20;;;;;;4157615;28;20053;-63
2022/07/04 09:33:23;;;;;;;3.63;1.40;;;34.50;90.20;;;;;;4157442;28;20107;-62
2022/07/04 09:35:29;;;;;;;7.93;5.60;;;34.50;90.20;;;;;;4122574;28;20112;-62
2022/07/04 09:37:46;;;;;;;5.63;3.83;;;34.50;90.20;;;;;;4124117;28;20137;-62
2022/07/04 09:39:51;;;;;;;6.20;2.25;;;34.50;90.30;;;;;;4107396;28;20078;-62
2022/07/04 09:42:00;;;;;;;3.58;1.42;;;34.40;90.30;;;;;;4124741;28;20164;-63
2022/07/04 09:44:07;;;;;;;3.70;1.40;;;34.30;90.30;;;;;;4151586;28;20069;-63
2022/07/04 09:46:14;;;;;;;2.25;1.20;;;34.30;90.40;;;;;;4157086;28;20495;-64
2022/07/04 09:48:19;;;;;;;4.32;1.25;;;34.30;90.30;;;;;;4108679;28;20058;-63
2022/07/04 09:50:26;;;;;;;2.50;1.20;;;34.40;90.20;;;;;;4124675;28;20092;-63
2022/07/04 09:52:31;;;;;;;5.38;1.35;;;34.40;90.10;;;;;;4122965;28;20416;-63
2022/07/04 09:54:35;;;;;;;2.67;1.30;;;34.30;89.90;;;;;;4124909;28;20578;-63
2022/07/04 09:56:47;;;;;;;4.15;1.20;;;34.30;89.90;;;;;;4124524;28;20161;-63
2022/07/04 09:58:57;;;;;;;6.30;2.10;;;34.30;89.70;;;;;;4123768;28;20072;-64
2022/07/04 10:01:02;;;;;;;7.32;3.72;;;34.40;90.10;;;;;;4124137;28;20437;-63
2022/07/04 10:03:19;;;;;;;7.68;4.45;;;34.50;90.20;;;;;;4122304;28;20046;-63
2022/07/04 10:05:26;;;;;;;4.80;2.28;;;34.50;90.20;;;;;;4125137;28;20496;-63
2022/07/04 10:07:31;;;;;;;10.32;2.35;;;34.40;90.10;;;;;;4149946;28;20050;-64
2022/07/04 10:09:38;;;;;;;4.60;2.00;;;34.20;90.70;;;;;;4153697;28;20047;-64
2022/07/04 10:11:45;;;;;;;3.92;2.00;;;33.90;91.10;;;;;;4155365;28;20081;-63
2022/07/04 10:13:50;;;;;;;3.72;1.90;;;33.90;91.40;;;;;;4156252;28;20046;-63
2022/07/04 10:15:58;;;;;;;4.53;1.70;;;33.70;91.30;;;;;;4121895;28;20058;-63
2022/07/04 10:18:03;;;;;;;7.35;2.30;;;33.70;91.50;;;;;;4140219;28;20177;-65
2022/07/04 10:20:11;;;;;;;6.55;2.40;;;33.40;91.90;;;;;;4164875;28;20128;-61
2022/07/04 10:22:21;;;;;;;4.82;2.35;;;33.60;92.00;;;;;;4171502;28;20041;-62
2022/07/04 10:24:25;;;;;;;3.10;2.00;;;33.60;91.70;;;;;;4175441;28;20059;-60
2022/07/04 10:26:31;;;;;;;3.13;1.80;;;33.30;92.00;;;;;;4172778;28;20040;-62
2022/07/04 10:28:38;;;;;;;5.63;2.67;;;33.30;92.10;;;;;;4170329;28;20043;-63
2022/07/04 10:30:43;;;;;;;5.28;2.55;;;33.20;92.20;;;;;;4157734;28;20057;-63
2022/07/04 10:32:50;;;;;;;5.15;2.70;;;33.30;92.00;;;;;;4174995;28;20072;-63
2022/07/04 10:34:58;;;;;;;5.45;3.10;;;33.30;92.30;;;;;;4169832;28;20175;-62
2022/07/04 10:37:03;;;;;;;5.55;2.25;;;33.30;92.40;;;;;;4168146;28;20065;-62
2022/07/04 10:39:08;;;;;;;4.60;1.88;;;33.20;92.30;;;;;;4167436;28;20072;-63
2022/07/04 10:41:15;;;;;;;5.05;1.90;;;33.00;92.50;;;;;;4168514;28;20045;-63
2022/07/04 10:43:40;;;;;;;4.07;1.80;;;33.00;92.70;;;;;;4170619;28;20513;-63
2022/07/04 10:45:45;;;;;;;7.30;2.20;;;32.90;92.80;;;;;;4174177;28;20411;-63
2022/07/04 10:47:58;;;;;;;10.90;2.30;;;32.70;92.90;;;;;;4173624;28;20041;-64
2022/07/04 10:50:03;;;;;;;6.60;3.60;;;32.80;93.00;;;;;;4174288;28;20056;-63
2022/07/04 10:52:12;;;;;;;10.20;6.40;;;32.80;93.10;;;;;;4175177;28;20067;-62
2022/07/04 10:54:31;;;;;;;10.48;7.18;;;32.80;93.20;;;;;;4120225;28;20057;-62
2022/07/04 10:56:40;;;;;;;8.75;6.82;;;32.70;93.00;;;;;;4189625;28;20143;-63
2022/07/04 10:58:44;;;;;;;15.25;9.00;;;32.60;93.20;;;;;;4166917;28;20471;-63
2022/07/04 11:01:16;;;;;;;11.70;7.82;;;32.50;93.30;;;;;;4171635;28;20087;-63
2022/07/04 11:03:26;;;;;;;10.05;6.13;;;32.60;93.30;;;;;;4175743;28;20052;-63
2022/07/04 11:05:39;;;;;;;;;;;32.70;93.20;;;;;;4175741;28;20098;-62
2022/07/04 11:08:06;;;;;;;11.15;4.50;;;32.60;93.30;;;;;;4105093;28;19930;-62
2022/07/04 11:10:21;;;;;;;9.27;3.47;;;32.70;93.30;;;;;;4156327;28;20470;-62
2022/07/04 11:12:55;;;;;;;11.32;4.07;;;32.80;93.30;;;;;;4156429;28;20544;-63
2022/07/04 11:15:05;;;;;;;9.63;4.75;;;32.80;93.10;;;;;;4154938;28;20048;-64